Strait Of Dover, United Kingdom
Current Conditions -  °F | °C
As of 12:20 PM on Thursday 23 Oct 2014 (Local Time) from EGMD Reporting Station
Broken Clouds Broken Clouds  
Wind Chill: 61°   Ceiling: 3900
Heat Index: 61°   Visibility: 6mi
Dew Point: 54°   Wind: 20mph
Humidity: 77%   Direction: 240°WSW
Pressure: 30.18"   Gusts: NA
Location:  51°N, 1.42°E
Report Text: EGMD 231120Z 24017KT 9999 FEW025 BKN039 16/12 Q1022
Loading
Personal Weather Stations






























Interactive Weather Map
Tropical Storm Tracking
New forecast layout! Learn more

10-Day Weather Forecast

Advertisements
Track Severe Weather on mobile